Time;durP1;ratioP1;P1;durP2;ratioP2;P2;SDS_P1;SDS_P2;PMS_P1;PMS_P2;Temp;Humidity;BMP_temperature;BMP_pressure;BME280_temperature;BME280_humidity;BME280_pressure;Samples;Min_cycle;Max_cycle;Signal;HPM_P1;HPM_P2
2022/11/11 00:02:15;;;;;;;;;;;;;;;;;;6242108;23;19903;-73
2022/11/11 00:04:41;;;;;;;;;;;;;;;;;;6241653;23;19903;-73
2022/11/11 00:07:07;;;;;;;;;;;9.30;99.90;;;;;;6241746;23;19899;-73
2022/11/11 00:09:32;;;;;;;;;;;9.20;99.90;;;;;;6241463;23;19904;-73
2022/11/11 00:11:58;;;;;;;;;;;9.30;99.90;;;;;;6242354;23;19900;-73
2022/11/11 00:14:23;;;;;;;;;;;9.20;99.90;;;;;;6241702;23;20203;-73
2022/11/11 00:25:07;;;;;;;;;;;9.20;99.90;;;;;;6254741;23;19907;-72
2022/11/11 00:27:33;;;;;;;;;;;;;;;;;;6243374;22;20229;-73
2022/11/11 00:29:58;;;;;;;;;;;9.40;99.90;;;;;;6244111;23;19900;-73
2022/11/11 00:32:29;;;;;;;;;;;9.50;99.90;;;;;;6243583;23;19907;-73
2022/11/11 00:37:40;;;;;;;;;;;9.70;99.90;;;;;;6243496;23;19911;-73
2022/11/11 00:40:06;;;;;;;;;;;9.70;99.90;;;;;;6244040;22;19900;-73
2022/11/11 00:42:32;;;;;;;;;;;;;;;;;;6243354;22;19922;-73
2022/11/11 00:44:58;;;;;;;;;;;9.90;99.90;;;;;;6243988;23;20301;-73
2022/11/11 00:52:56;;;;;;;;;;;10.00;99.90;;;;;;6243881;23;20347;-73
2022/11/11 00:55:21;;;;;;;;;;;10.10;99.90;;;;;;6243374;23;20003;-73
2022/11/11 00:57:47;;;;;;;;;;;;;;;;;;6243518;23;19906;-74
2022/11/11 01:00:13;;;;;;;;;;;10.10;99.90;;;;;;6243740;23;20264;-72
2022/11/11 01:02:39;;;;;;;;;;;;;;;;;;6243203;22;19938;-72
2022/11/11 01:05:04;;;;;;;;;;;10.10;99.90;;;;;;6243586;23;19903;-73
2022/11/11 01:07:30;;;;;;;;;;;;;;;;;;6243033;23;19903;-73
2022/11/11 01:09:55;;;;;;;;;;;10.10;99.90;;;;;;6243742;23;19981;-73
2022/11/11 01:12:21;;;;;;;;;;;;;;;;;;6243348;23;19907;-73
2022/11/11 01:14:47;;;;;;;;;;;10.20;99.90;;;;;;6243563;23;20325;-73
2022/11/11 01:17:12;;;;;;;;;;;10.20;99.90;;;;;;6243507;23;19899;-73
2022/11/11 01:19:38;;;;;;;;;;;;;;;;;;6242354;23;19900;-72
2022/11/11 01:22:04;;;;;;;;;;;;;;;;;;6243559;23;19907;-73
2022/11/11 01:24:30;;;;;;;;;;;;;;;;;;6243241;23;19934;-73
2022/11/11 01:26:55;;;;;;;;;;;10.20;99.90;;;;;;6243529;23;19904;-73
2022/11/11 01:29:21;;;;;;;;;;;;;;;;;;6239971;23;19900;-73
2022/11/11 01:31:47;;;;;;;;;;;;;;;;;;6241592;23;19918;-73
2022/11/11 01:34:12;;;;;;;;;;;10.20;99.90;;;;;;6242230;23;19973;-73
2022/11/11 01:36:38;;;;;;;;;;;;;;;;;;6242322;23;19998;-73
2022/11/11 01:39:04;;;;;;;;;;;10.20;99.90;;;;;;6243461;23;19914;-73
2022/11/11 01:41:33;;;;;;;;;;;;;;;;;;6242704;23;19926;-72
2022/11/11 01:44:06;;;;;;;;;;;10.30;99.90;;;;;;6243262;23;19900;-73
2022/11/11 01:46:34;;;;;;;;;;;10.30;99.90;;;;;;6242421;22;19904;-73
2022/11/11 01:49:23;;;;;;;;;;;10.30;99.90;;;;;;6243120;22;19906;-73
2022/11/11 01:52:10;;;;;;;;;;;10.30;99.90;;;;;;6226678;23;19946;-72
2022/11/11 01:54:42;;;;;;;;;;;10.40;99.90;;;;;;6242329;22;19907;-72
2022/11/11 01:57:08;;;;;;;;;;;;;;;;;;6243437;22;19931;-72
2022/11/11 01:59:35;;;;;;;;;;;10.40;99.90;;;;;;6242428;23;19923;-72
2022/11/11 02:02:02;;;;;;;;;;;10.40;99.90;;;;;;6243637;22;20220;-72
2022/11/11 02:07:12;;;;;;;;;;;10.40;99.90;;;;;;6243279;23;19906;-72
2022/11/11 02:09:40;;;;;;;;;;;10.40;99.90;;;;;;6242500;22;19900;-72
2022/11/11 02:14:53;;;;;;;;;;;10.40;99.90;;;;;;6243182;23;19911;-73
2022/11/11 02:17:18;;;;;;;;;;;10.40;99.90;;;;;;6242739;22;19911;-72
2022/11/11 02:19:47;;;;;;;;;;;10.50;99.90;;;;;;6242383;22;19974;-72
2022/11/11 02:22:20;;;;;;;;;;;10.50;99.90;;;;;;6242986;22;19899;-72
2022/11/11 02:24:46;;;;;;;;;;;10.50;99.90;;;;;;6242853;22;19914;-73
2022/11/11 02:27:14;;;;;;;;;;;10.50;99.90;;;;;;6243081;22;19998;-72
2022/11/11 02:29:40;;;;;;;;;;;10.50;99.90;;;;;;6242458;22;19903;-72
2022/11/11 02:32:06;;;;;;;;;;;10.50;99.90;;;;;;6241925;22;20221;-72
2022/11/11 02:34:31;;;;;;;;;;;10.50;99.90;;;;;;6242301;23;19903;-72
2022/11/11 02:36:57;;;;;;;;;;;;;;;;;;6242646;22;20318;-72
2022/11/11 02:39:24;;;;;;;;;;;10.50;99.90;;;;;;6265922;22;20213;-73
2022/11/11 02:41:56;;;;;;;;;;;10.50;99.90;;;;;;6242307;22;19904;-72
2022/11/11 02:44:22;;;;;;;;;;;;;;;;;;6242688;22;20336;-72
2022/11/11 02:46:47;;;;;;;;;;;10.50;99.90;;;;;;6241683;23;19903;-72
2022/11/11 02:49:12;;;;;;;;;;;10.50;99.90;;;;;;6242963;23;20295;-72
2022/11/11 02:51:38;;;;;;;;;;;10.50;99.90;;;;;;6241864;23;19899;-72
2022/11/11 02:54:03;;;;;;;;;;;10.50;99.90;;;;;;6243020;23;19938;-73
2022/11/11 02:59:13;;;;;;;;;;;10.50;99.90;;;;;;6242812;23;20265;-72
2022/11/11 03:01:38;;;;;;;;;;;10.50;99.90;;;;;;6241273;23;19900;-72
2022/11/11 03:04:04;;;;;;;;;;;10.50;99.90;;;;;;6242688;23;19899;-72
2022/11/11 03:06:30;;;;;;;;;;;;;;;;;;6241789;22;19970;-72
2022/11/11 03:08:56;;;;;;;;;;;;;;;;;;6242296;23;19981;-73
2022/11/11 03:11:27;;;;;;;;;;;10.60;99.90;;;;;;6241993;23;19900;-74
2022/11/11 03:13:53;;;;;;;;;;;;;;;;;;6242428;23;20298;-72
2022/11/11 03:19:03;;;;;;;;;;;;;;;;;;6242579;23;19907;-72
2022/11/11 03:21:29;;;;;;;;;;;10.60;99.90;;;;;;6241663;23;19903;-72
2022/11/11 03:23:54;;;;;;;;;;;;;;;;;;6242716;23;19978;-72
2022/11/11 03:26:20;;;;;;;;;;;10.50;99.90;;;;;;6242062;23;19911;-72
2022/11/11 03:28:45;;;;;;;;;;;10.60;99.90;;;;;;6241965;23;19926;-72
2022/11/11 03:31:11;;;;;;;;;;;;;;;;;;6241582;23;19907;-71
2022/11/11 03:33:37;;;;;;;;;;;10.50;99.90;;;;;;6241619;23;19899;-72
2022/11/11 03:36:02;;;;;;;;;;;10.50;99.90;;;;;;6242768;23;19900;-72
2022/11/11 03:38:28;;;;;;;;;;;;;;;;;;6241551;23;19899;-72
2022/11/11 03:40:55;;;;;;;;;;;10.50;99.90;;;;;;6242128;23;19899;-72
2022/11/11 03:43:21;;;;;;;;;;;;;;;;;;6241957;22;19954;-72
2022/11/11 03:45:47;;;;;;;;;;;;;;;;;;6241308;23;19974;-72
2022/11/11 03:48:12;;;;;;;;;;;10.50;99.90;;;;;;6241933;23;19903;-72
2022/11/11 03:50:38;;;;;;;;;;;;;;;;;;6241293;22;19904;-72
2022/11/11 03:53:04;;;;;;;;;;;10.50;99.90;;;;;;6241732;23;19934;-72
2022/11/11 03:55:29;;;;;;;;;;;10.50;99.90;;;;;;6241277;23;19911;-74
2022/11/11 03:57:55;;;;;;;;;;;10.50;99.90;;;;;;6241842;23;19899;-74
2022/11/11 04:00:22;;;;;;;;;;;10.50;99.90;;;;;;6241163;23;20018;-74
2022/11/11 04:11:01;;;;;;;;;;;;;;;;;;6240032;23;19925;-74
2022/11/11 04:16:12;;;;;;;;;;;;;;;;;;6241576;23;19915;-72
2022/11/11 04:26:52;;;;;;;;;;;10.50;99.90;;;;;;6242113;23;19906;-74
2022/11/11 04:29:30;;;;;;;;;;;10.50;99.90;;;;;;6241305;22;19931;-74
2022/11/11 04:34:40;;;;;;;;;;;10.50;99.90;;;;;;6241494;23;19914;-73
2022/11/11 04:37:06;;;;;;;;;;;;;;;;;;6241871;22;19986;-75
2022/11/11 04:42:16;;;;;;;;;;;;;;;;;;6241719;23;19988;-75
2022/11/11 04:47:26;;;;;;;;;;;;;;;;;;6241440;23;19970;-74
2022/11/11 04:49:52;;;;;;;;;;;10.50;99.90;;;;;;6242226;23;20229;-74
2022/11/11 04:52:27;;;;;;;;;;;10.50;99.90;;;;;;6241580;23;19903;-74
2022/11/11 04:57:38;;;;;;;;;;;10.40;99.90;;;;;;6240798;23;19942;-72
2022/11/11 05:00:03;;;;;;;;;;;10.50;99.90;;;;;;6241815;22;20265;-72
2022/11/11 05:05:13;;;;;;;;;;;10.40;99.90;;;;;;6243483;23;19923;-72
2022/11/11 05:10:24;;;;;;;;;;;10.40;99.90;;;;;;6243386;23;19952;-72
2022/11/11 05:12:49;;;;;;;;;;;10.40;99.90;;;;;;6242869;22;19900;-73
2022/11/11 05:25:24;;;;;;;;;;;10.20;99.90;;;;;;6242305;23;19906;-72
2022/11/11 05:26:14;;;;;;;;;;;10.40;99.90;;;;;;6242792;23;19899;-73
2022/11/11 05:28:39;;;;;;;;;;;10.40;99.90;;;;;;6242379;23;19994;-73
2022/11/11 05:31:04;;;;;;;;;;;10.40;99.90;;;;;;6242807;23;19962;-72
2022/11/11 05:33:30;;;;;;;;;;;;;;;;;;6242785;23;20363;-73
2022/11/11 05:35:56;;;;;;;;;;;10.40;99.90;;;;;;6243172;23;19911;-72
2022/11/11 05:38:22;;;;;;;;;;;;;;;;;;6243228;23;19937;-74
2022/11/11 05:40:47;;;;;;;;;;;10.30;99.90;;;;;;6242674;23;19899;-72
2022/11/11 05:43:12;;;;;;;;;;;10.30;99.90;;;;;;6243627;23;19900;-74
2022/11/11 05:45:39;;;;;;;;;;;10.30;99.90;;;;;;6242839;23;19986;-72
2022/11/11 05:48:05;;;;;;;;;;;10.30;99.90;;;;;;6243658;22;19899;-72
2022/11/11 05:50:31;;;;;;;;;;;;;;;;;;6242734;23;19923;-75
2022/11/11 05:52:56;;;;;;;;;;;10.30;99.90;;;;;;6242892;23;20043;-74
2022/11/11 05:55:22;;;;;;;;;;;;;;;;;;6242517;23;19915;-72
2022/11/11 05:57:47;;;;;;;;;;;10.30;99.90;;;;;;6242746;23;19900;-72
2022/11/11 06:00:13;;;;;;;;;;;10.20;99.90;;;;;;6243417;23;19978;-72
2022/11/11 06:02:39;;;;;;;;;;;10.20;99.90;;;;;;6242709;22;19930;-72
2022/11/11 06:05:07;;;;;;;;;;;10.20;99.90;;;;;;6243578;22;19900;-72
2022/11/11 06:07:33;;;;;;;;;;;;;;;;;;6242294;22;19899;-73
2022/11/11 06:10:29;;;;;;;;;;;10.20;99.90;;;;;;6242672;23;19907;-73
2022/11/11 06:15:28;;;;;;;;;;;;;;;;;;6241710;23;19927;-73
2022/11/11 06:17:54;;;;;;;;;;;10.20;99.90;;;;;;6267399;22;19900;-73
2022/11/11 06:20:19;;;;;;;;;;;10.10;99.90;;;;;;6243073;23;19931;-73
2022/11/11 06:22:57;;;;;;;;;;;10.10;99.90;;;;;;6242841;23;20093;-73
2022/11/11 06:28:07;;;;;;;;;;;10.00;99.90;;;;;;6243040;23;19946;-73
2022/11/11 06:30:32;;;;;;;;;;;10.00;99.90;;;;;;6242688;22;19903;-73
2022/11/11 06:32:58;;;;;;;;;;;;;;;;;;6242601;23;19911;-72
2022/11/11 06:35:24;;;;;;;;;;;9.90;99.90;;;;;;6242807;23;20264;-72
2022/11/11 06:37:49;;;;;;;;;;;9.90;99.90;;;;;;6242728;23;19970;-72
2022/11/11 06:40:15;;;;;;;;;;;;;;;;;;6242077;23;19900;-72
2022/11/11 06:42:40;;;;;;;;;;;9.90;99.90;;;;;;6242420;23;19931;-71
2022/11/11 06:45:06;;;;;;;;;;;;;;;;;;6242108;23;19908;-71
2022/11/11 06:47:32;;;;;;;;;;;9.90;99.90;;;;;;6265625;22;19927;-70
2022/11/11 06:49:58;;;;;;;;;;;;;;;;;;6242502;23;19899;-73
2022/11/11 06:52:23;;;;;;;;;;;;;;;;;;6241935;23;19899;-71
2022/11/11 06:54:49;;;;;;;;;;;;;;;;;;6241187;23;20272;-71
2022/11/11 06:57:15;;;;;;;;;;;;;;;;;;6242113;23;19929;-72
2022/11/11 06:59:41;;;;;;;;;;;9.80;99.90;;;;;;6241786;23;19899;-72
2022/11/11 07:02:11;;;;;;;;;;;9.70;99.90;;;;;;6242443;23;20026;-72
2022/11/11 07:04:36;;;;;;;;;;;9.70;99.90;;;;;;6242222;22;19903;-72
2022/11/11 07:07:02;;;;;;;;;;;9.70;99.90;;;;;;6242248;23;20370;-72
2022/11/11 07:09:28;;;;;;;;;;;9.60;99.90;;;;;;6240953;23;19903;-72
2022/11/11 07:11:53;;;;;;;;;;;9.60;99.90;;;;;;6242345;22;19907;-72
2022/11/11 07:14:19;;;;;;;;;;;9.70;99.90;;;;;;6241663;23;19969;-72
2022/11/11 07:16:44;;;;;;;;;;;;;;;;;;6241418;23;19907;-72
2022/11/11 07:19:10;;;;;;;;;;;9.70;99.90;;;;;;6265755;22;19978;-72
2022/11/11 07:21:36;;;;;;;;;;;;;;;;;;6241377;23;19903;-73
2022/11/11 07:24:01;;;;;;;;;;;9.70;99.90;;;;;;6241354;23;19904;-72
2022/11/11 07:26:27;;;;;;;;;;;;;;;;;;6241087;23;19970;-72
2022/11/11 07:28:52;;;;;;;;;;;9.70;99.90;;;;;;6242163;23;19974;-72
2022/11/11 07:31:18;;;;;;;;;;;;;;;;;;6241112;23;20336;-71
2022/11/11 07:33:44;;;;;;;;;;;;;;;;;;6241511;23;19985;-72
2022/11/11 07:36:10;;;;;;;;;;;;;;;;;;6241369;23;19922;-72
2022/11/11 07:38:36;;;;;;;;;;;;;;;;;;6240066;23;19933;-72
2022/11/11 07:41:01;;;;;;;;;;;9.70;99.90;;;;;;6240538;23;20229;-73
2022/11/11 07:43:27;;;;;;;;;;;;;;;;;;6240295;23;19903;-73
2022/11/11 07:45:53;;;;;;;;;;;9.70;99.90;;;;;;6241048;23;19900;-72
2022/11/11 07:48:18;;;;;;;;;;;9.80;99.90;;;;;;6240682;23;19899;-72
2022/11/11 07:50:44;;;;;;;;;;;9.70;99.90;;;;;;6240489;23;19957;-72
2022/11/11 07:53:09;;;;;;;;;;;9.70;99.90;;;;;;6240992;23;19903;-72
2022/11/11 07:55:34;;;;;;;;;;;9.60;99.90;;;;;;6240861;23;19984;-72
2022/11/11 07:58:01;;;;;;;;;;;9.60;99.90;;;;;;6241731;23;19907;-72
2022/11/11 08:00:27;;;;;;;;;;;;;;;;;;6240655;22;20010;-70
2022/11/11 08:02:53;;;;;;;;;;;;;;;;;;6239735;23;19979;-70
2022/11/11 08:05:18;;;;;;;;;;;9.60;99.90;;;;;;6241060;23;19899;-70
2022/11/11 08:07:44;;;;;;;;;;;9.60;99.90;;;;;;6239058;23;19899;-70
2022/11/11 08:10:10;;;;;;;;;;;9.60;99.90;;;;;;6241501;23;19979;-70
2022/11/11 08:15:20;;;;;;;;;;;9.60;99.90;;;;;;6240851;23;19960;-70
2022/11/11 08:17:45;;;;;;;;;;;9.60;99.90;;;;;;6240839;23;19942;-70
2022/11/11 08:20:11;;;;;;;;;;;9.60;99.90;;;;;;6240822;23;19931;-70
2022/11/11 08:22:37;;;;;;;;;;;;;;;;;;6240843;22;19950;-71
2022/11/11 08:25:02;;;;;;;;;;;;;;;;;;6241523;23;19899;-71
2022/11/11 08:27:28;;;;;;;;;;;;;;;;;;6240526;23;19899;-70
2022/11/11 08:29:54;;;;;;;;;;;9.60;99.90;;;;;;6241499;23;19931;-70
2022/11/11 08:32:19;;;;;;;;;;;9.60;99.90;;;;;;6240930;23;19911;-73
2022/11/11 08:34:45;;;;;;;;;;;9.60;99.90;;;;;;6240586;23;20312;-71
2022/11/11 08:37:10;;;;;;;;;;;9.50;99.90;;;;;;6241335;23;19962;-70
2022/11/11 08:39:36;;;;;;;;;;;;;;;;;;6242828;23;19899;-70
2022/11/11 08:42:01;;;;;;;;;;;9.40;99.90;;;;;;6243539;23;19907;-70
2022/11/11 08:44:27;;;;;;;;;;;9.30;99.90;;;;;;6242765;23;19900;-71
2022/11/11 08:46:53;;;;;;;;;;;;;;;;;;6243202;23;19927;-70
2022/11/11 08:49:18;;;;;;;;;;;9.20;99.90;;;;;;6242573;23;19958;-70
2022/11/11 08:51:44;;;;;;;;;;;;;;;;;;6242753;23;19987;-70
2022/11/11 08:54:10;;;;;;;;;;;9.20;99.90;;;;;;6243097;23;19966;-71
2022/11/11 08:56:35;;;;;;;;;;;9.20;99.90;;;;;;6242592;23;19981;-70
2022/11/11 08:59:00;;;;;;;;;;;9.20;99.90;;;;;;6243737;23;19931;-70
2022/11/11 09:01:26;;;;;;;;;;;;;;;;;;6242496;23;20340;-71
2022/11/11 09:03:52;;;;;;;;;;;;;;;;;;6242945;23;20216;-71
2022/11/11 09:06:18;;;;;;;;;;;9.20;99.90;;;;;;6242970;23;19907;-71
2022/11/11 09:08:43;;;;;;;;;;;9.20;99.90;;;;;;6243120;23;19992;-71
2022/11/11 09:11:09;;;;;;;;;;;;;;;;;;6243241;22;20233;-71
2022/11/11 09:13:35;;;;;;;;;;;;;;;;;;6242618;23;19907;-70
2022/11/11 09:16:00;;;;;;;;;;;9.30;99.90;;;;;;6243087;23;19946;-71
2022/11/11 09:18:26;;;;;;;;;;;;;;;;;;6242071;23;19906;-71
2022/11/11 09:20:52;;;;;;;;;;;;;;;;;;6242954;23;19899;-70
2022/11/11 09:23:18;;;;;;;;;;;9.30;99.90;;;;;;6242756;23;19906;-71
2022/11/11 09:25:44;;;;;;;;;;;;;;;;;;6242481;23;19986;-71
2022/11/11 09:28:09;;;;;;;;;;;;;;;;;;6243183;23;19950;-71
2022/11/11 09:30:35;;;;;;;;;;;;;;;;;;6242104;23;20362;-71
2022/11/11 09:33:01;;;;;;;;;;;;;;;;;;6242328;23;19915;-71
2022/11/11 09:35:27;;;;;;;;;;;;;;;;;;6266206;22;19903;-71
2022/11/11 09:37:57;;;;;;;;;;;9.60;99.90;;;;;;6242870;23;19907;-71
2022/11/11 09:40:23;;;;;;;;;;;;;;;;;;6242290;22;19904;-71
2022/11/11 09:42:54;;;;;;;;;;;9.70;99.90;;;;;;6242468;23;20004;-71
2022/11/11 09:45:20;;;;;;;;;;;;;;;;;;6242487;23;20224;-71
2022/11/11 09:48:14;;;;;;;;;;;9.80;99.90;;;;;;6241912;23;19911;-71
2022/11/11 09:50:40;;;;;;;;;;;9.90;99.90;;;;;;6242453;22;20345;-71
2022/11/11 09:53:06;;;;;;;;;;;;;;;;;;6242717;22;19908;-71
2022/11/11 09:55:32;;;;;;;;;;;10.00;99.90;;;;;;6265938;22;19903;-71
2022/11/11 09:57:58;;;;;;;;;;;;;;;;;;6242627;23;20213;-71
2022/11/11 10:00:26;;;;;;;;;;;10.00;99.90;;;;;;6242707;22;19900;-71
2022/11/11 10:02:54;;;;;;;;;;;10.10;99.90;;;;;;6242163;22;19903;-71
2022/11/11 10:05:20;;;;;;;;;;;;;;;;;;6242628;23;20298;-71
2022/11/11 10:07:46;;;;;;;;;;;;;;;;;;6242111;23;19919;-71
2022/11/11 10:10:12;;;;;;;;;;;;;;;;;;6242650;23;19922;-71
2022/11/11 10:12:56;;;;;;;;;;;10.30;99.90;;;;;;6241740;23;19978;-71
2022/11/11 10:15:23;;;;;;;;;;;10.40;99.90;;;;;;6241035;23;19964;-71
2022/11/11 10:17:49;;;;;;;;;;;;;;;;;;6241292;22;19901;-71
2022/11/11 10:20:15;;;;;;;;;;;;;;;;;;6242437;23;19907;-71
2022/11/11 10:22:41;;;;;;;;;;;;;;;;;;6242040;23;19964;-71
2022/11/11 10:25:12;;;;;;;;;;;10.70;99.90;;;;;;6242397;23;19911;-71
2022/11/11 10:27:45;;;;;;;;;;;10.70;99.90;;;;;;6241942;23;19926;-71
2022/11/11 10:30:20;;;;;;;;;;;10.80;99.90;;;;;;6242342;22;19904;-70
2022/11/11 10:32:45;;;;;;;;;;;;;;;;;;6241257;22;20399;-70
2022/11/11 10:35:14;;;;;;;;;;;10.90;99.90;;;;;;6265933;22;19987;-70
2022/11/11 10:37:40;;;;;;;;;;;11.00;99.90;;;;;;6239446;23;19903;-70
2022/11/11 10:40:32;;;;;;;;;;;11.00;99.90;;;;;;6240561;23;20014;-71
2022/11/11 10:42:57;;;;;;;;;;;11.10;99.90;;;;;;6235705;23;19915;-70
2022/11/11 10:45:26;;;;;;;;;;;11.10;99.90;;;;;;6241260;23;19899;-71
2022/11/11 10:47:55;;;;;;;;;;;11.20;99.90;;;;;;6241814;22;19934;-70
2022/11/11 10:50:21;;;;;;;;;;;;;;;;;;6241387;22;19900;-71
2022/11/11 10:52:53;;;;;;;;;;;11.30;99.90;;;;;;6239335;23;19973;-70
2022/11/11 10:55:19;;;;;;;;;;;;;;;;;;6239957;22;19910;-70
2022/11/11 10:57:45;;;;;;;;;;;;;;;;;;6239371;23;19899;-70
2022/11/11 11:00:11;;;;;;;;;;;;;;;;;;6241193;23;19907;-71
2022/11/11 11:02:42;;;;;;;;;;;11.60;99.90;;;;;;6240916;23;19903;-70
2022/11/11 11:05:12;;;;;;;;;;;11.60;99.90;;;;;;6266156;22;19922;-70
2022/11/11 11:07:41;;;;;;;;;;;11.70;99.90;;;;;;6241451;22;19903;-70
2022/11/11 11:10:18;;;;;;;;;;;11.80;99.90;;;;;;6241803;22;19923;-70
2022/11/11 11:12:44;;;;;;;;;;;;;;;;;;6241909;22;19900;-70
2022/11/11 11:15:12;;;;;;;;;;;11.80;99.90;;;;;;6241574;23;19910;-70
2022/11/11 11:17:38;;;;;;;;;;;;;;;;;;6241263;22;19900;-71
2022/11/11 11:20:08;;;;;;;;;;;11.90;99.90;;;;;;6242177;23;19999;-71
2022/11/11 11:22:44;;;;;;;;;;;11.90;99.90;;;;;;6241298;22;19911;-70
2022/11/11 11:25:12;;;;;;;;;;;12.00;99.90;;;;;;6241582;22;20164;-70
2022/11/11 11:27:37;;;;;;;;;;;12.00;99.90;;;;;;6241497;23;20389;-70
2022/11/11 11:30:14;;;;;;;;;;;12.00;99.90;;;;;;6241545;23;19927;-70
2022/11/11 11:32:42;;;;;;;;;;;12.00;99.90;;;;;;6241141;22;19957;-70
2022/11/11 11:35:08;;;;;;;;;;;12.00;99.90;;;;;;6241968;22;19903;-71
2022/11/11 11:37:48;;;;;;;;;;;12.00;99.90;;;;;;6241432;22;20594;-71
2022/11/11 11:40:14;;;;;;;;;;;11.90;99.90;;;;;;6242010;22;19907;-71
2022/11/11 11:42:40;;;;;;;;;;;12.00;99.90;;;;;;6240906;22;20358;-69
2022/11/11 11:45:16;;;;;;;;;;;12.00;99.90;;;;;;6238512;23;19904;-69
2022/11/11 11:47:43;;;;;;;;;;;11.90;99.90;;;;;;6238957;23;19907;-69
2022/11/11 11:50:27;;;;;;;;;;;11.90;99.90;;;;;;6241204;22;19900;-70
2022/11/11 11:52:52;;;;;;;;;;;;;;;;;;6241172;22;20329;-69
2022/11/11 11:55:18;;;;;;;;;;;11.80;99.90;;;;;;6240571;23;19903;-69
2022/11/11 11:57:56;;;;;;;;;;;11.80;99.90;;;;;;6264017;22;20372;-69
2022/11/11 12:00:29;;;;;;;;;;;11.70;99.90;;;;;;6240590;23;20041;-69
2022/11/11 12:02:55;;;;;;;;;;;;;;;;;;6241071;22;20252;-68
2022/11/11 12:05:41;;;;;;;;;;;11.60;99.90;;;;;;6241094;23;19935;-69
2022/11/11 12:08:29;;;;;;;;;;;11.60;99.90;;;;;;6163308;23;19899;-69
2022/11/11 12:10:55;;;;;;;;;;;;;;;;;;6224784;23;19982;-70
2022/11/11 12:13:21;;;;;;;;;;;11.60;99.90;;;;;;6265738;22;20470;-70
2022/11/11 12:15:57;;;;;;;;;;;11.60;99.90;;;;;;6243280;23;19903;-71
2022/11/11 12:18:24;;;;;;;;;;;;;;;;;;6243709;22;19935;-70
2022/11/11 12:20:52;;;;;;;;;;;11.60;99.90;;;;;;6243313;23;19899;-70
2022/11/11 12:23:18;;;;;;;;;;;;;;;;;;6243502;22;19990;-70
2022/11/11 12:25:52;;;;;;;;;;;11.60;99.90;;;;;;6242903;23;20374;-70
2022/11/11 12:28:24;;;;;;;;;;;11.60;99.90;;;;;;6243123;22;19907;-70
2022/11/11 12:31:05;;;;;;;;;;;11.60;99.90;;;;;;6243254;22;19900;-70
2022/11/11 12:33:30;;;;;;;;;;;;;;;;;;6242648;23;19973;-70
2022/11/11 12:35:57;;;;;;;;;;;;;;;;;;6243576;23;19962;-70
2022/11/11 12:38:22;;;;;;;;;;;;;;;;;;6243120;22;20282;-70
2022/11/11 12:40:48;;;;;;;;;;;11.60;99.90;;;;;;6243249;23;19899;-71
2022/11/11 12:43:32;;;;;;;;;;;11.60;99.90;;;;;;6243143;23;19923;-70
2022/11/11 12:45:58;;;;;;;;;;;;;;;;;;6243625;23;20336;-70
2022/11/11 12:48:32;;;;;;;;;;;11.60;99.90;;;;;;6243073;23;19904;-70
2022/11/11 12:51:06;;;;;;;;;;;11.60;99.90;;;;;;6241883;23;19907;-71
2022/11/11 12:53:32;;;;;;;;;;;;;;;;;;6242295;22;19934;-70
2022/11/11 12:56:13;;;;;;;;;;;11.60;99.90;;;;;;6242820;23;19908;-70
2022/11/11 12:58:39;;;;;;;;;;;;;;;;;;6242682;23;19975;-70
2022/11/11 13:01:05;;;;;;;;;;;;;;;;;;6243626;23;19975;-70
2022/11/11 13:03:31;;;;;;;;;;;;;;;;;;6242623;23;19992;-70
2022/11/11 13:06:04;;;;;;;;;;;11.80;99.90;;;;;;6243190;23;19900;-69
2022/11/11 13:08:48;;;;;;;;;;;11.80;99.90;;;;;;6242309;22;19947;-70
2022/11/11 13:11:14;;;;;;;;;;;;;;;;;;6242264;23;19900;-69
2022/11/11 13:13:39;;;;;;;;;;;11.80;99.90;;;;;;6242526;23;19903;-69
2022/11/11 13:16:07;;;;;;;;;;;11.80;99.90;;;;;;6242884;23;20316;-70
2022/11/11 13:18:33;;;;;;;;;;;;;;;;;;6242563;22;19907;-70
2022/11/11 13:21:24;;;;;;;;;;;11.80;99.90;;;;;;6243447;23;19904;-69
2022/11/11 13:23:51;;;;;;;;;;;11.80;99.90;;;;;;6195452;22;19908;-70
2022/11/11 13:26:23;;;;;;;;;;;11.90;99.90;;;;;;6242141;22;19907;-69
2022/11/11 13:28:50;;;;;;;;;;;11.80;99.90;;;;;;6242823;22;20282;-70
2022/11/11 13:31:22;;;;;;;;;;;11.80;99.90;;;;;;6242896;22;19923;-70
2022/11/11 13:33:54;;;;;;;;;;;11.90;99.90;;;;;;6242185;22;19915;-69
2022/11/11 13:36:22;;;;;;;;;;;11.90;99.90;;;;;;6242334;22;19915;-68
2022/11/11 13:38:55;;;;;;;;;;;11.90;99.90;;;;;;6242265;22;19900;-69
2022/11/11 13:41:21;;;;;;;;;;;;;;;;;;6242441;22;19993;-70
2022/11/11 13:43:48;;;;;;;;;;;12.00;99.90;;;;;;6242702;23;19931;-69
2022/11/11 13:46:14;;;;;;;;;;;;;;;;;;6242734;22;19900;-70
2022/11/11 13:48:46;;;;;;;;;;;12.00;99.90;;;;;;6242261;23;19914;-70
2022/11/11 13:51:23;;;;;;;;;;;12.00;99.90;;;;;;6243141;22;19978;-69
2022/11/11 13:53:49;;;;;;;;;;;12.10;99.90;;;;;;6241729;23;19930;-69
2022/11/11 13:56:15;;;;;;;;;;;;;;;;;;6242433;22;19908;-70
2022/11/11 13:58:45;;;;;;;;;;;12.00;99.90;;;;;;6242203;23;19978;-70
2022/11/11 14:01:11;;;;;;;;;;;12.10;99.90;;;;;;6242752;22;19903;-69
2022/11/11 14:03:42;;;;;;;;;;;12.10;99.90;;;;;;6242235;22;19936;-70
2022/11/11 14:06:14;;;;;;;;;;;12.10;99.90;;;;;;6242662;23;19982;-70
2022/11/11 14:08:45;;;;;;;;;;;12.10;99.90;;;;;;6265377;22;20232;-70
2022/11/11 14:11:11;;;;;;;;;;;;;;;;;;6242297;22;19903;-71
2022/11/11 14:13:38;;;;;;;;;;;12.20;99.90;;;;;;6241467;23;20641;-70
2022/11/11 14:16:04;;;;;;;;;;;12.10;99.90;;;;;;6242506;22;19914;-70
2022/11/11 14:18:32;;;;;;;;;;;12.10;99.90;;;;;;6241706;22;19978;-70
2022/11/11 14:20:57;;;;;;;;;;;12.10;99.90;;;;;;6242375;23;20191;-70
2022/11/11 14:23:32;;;;;;;;;;;12.20;99.90;;;;;;6241025;23;19900;-70
2022/11/11 14:26:10;;;;;;;;;;;12.20;99.90;;;;;;6265950;22;19973;-70
2022/11/11 14:28:39;;;;;;;;;;;12.10;99.90;;;;;;6265389;22;19941;-70
2022/11/11 14:31:14;;;;;;;;;;;12.10;99.90;;;;;;6241889;23;19978;-70
2022/11/11 14:34:02;;;;;;;;;;;12.10;99.90;;;;;;6240799;22;19982;-70
2022/11/11 14:36:34;;;;;;;;;;;12.10;99.90;;;;;;6224852;23;19904;-68
2022/11/11 14:39:05;;;;;;;;;;;12.10;99.90;;;;;;6265737;22;19922;-69
2022/11/11 14:41:31;;;;;;;;;;;;;;;;;;6241328;23;19955;-69
2022/11/11 14:44:16;;;;;;;;;;;12.00;99.90;;;;;;6241641;23;20232;-69
2022/11/11 14:47:00;;;;;;;;;;;11.90;99.90;;;;;;6240698;23;19983;-70
2022/11/11 14:49:26;;;;;;;;;;;;;;;;;;6241353;23;19957;-70
2022/11/11 14:51:52;;;;;;;;;;;11.80;99.90;;;;;;6241452;23;19896;-70
2022/11/11 14:54:23;;;;;;;;;;;11.80;99.90;;;;;;6265549;22;20328;-70
2022/11/11 14:56:58;;;;;;;;;;;11.70;99.90;;;;;;6241725;22;19899;-69
2022/11/11 14:59:26;;;;;;;;;;;11.60;99.90;;;;;;6241737;22;20321;-71
2022/11/11 15:01:53;;;;;;;;;;;11.60;99.90;;;;;;6242164;22;19903;-70
2022/11/11 15:04:18;;;;;;;;;;;11.60;99.90;;;;;;6241839;22;19946;-69
2022/11/11 15:06:51;;;;;;;;;;;11.50;99.90;;;;;;6240962;23;19900;-70
2022/11/11 15:09:20;;;;;;;;;;;11.50;99.90;;;;;;6241523;22;20218;-70
2022/11/11 15:12:00;;;;;;;;;;;11.40;99.90;;;;;;6241332;23;19979;-70
2022/11/11 15:14:26;;;;;;;;;;;;;;;;;;6240037;23;19910;-70
2022/11/11 15:16:52;;;;;;;;;;;;;;;;;;6240898;23;19903;-70
2022/11/11 15:19:42;;;;;;;;;;;11.20;99.90;;;;;;6241199;23;20349;-70
2022/11/11 15:22:26;;;;;;;;;;;11.10;99.90;;;;;;6241603;22;19922;-69
2022/11/11 15:24:52;;;;;;;;;;;11.10;99.90;;;;;;6241723;23;19914;-69
2022/11/11 15:27:17;;;;;;;;;;;;;;;;;;6241645;23;19907;-69
2022/11/11 15:29:52;;;;;;;;;;;10.90;99.90;;;;;;6241372;23;19944;-69
2022/11/11 15:32:24;;;;;;;;;;;10.80;99.90;;;;;;6241251;23;19907;-69
2022/11/11 15:35:07;;;;;;;;;;;10.70;99.90;;;;;;6241117;22;19958;-69
2022/11/11 15:37:33;;;;;;;;;;;10.60;99.90;;;;;;6241138;22;19900;-69
2022/11/11 15:39:59;;;;;;;;;;;10.50;99.90;;;;;;6241099;23;19987;-69
2022/11/11 15:42:25;;;;;;;;;;;;;;;;;;6241523;23;19927;-69
2022/11/11 15:44:51;;;;;;;;;;;10.50;99.90;;;;;;6241864;23;20303;-69
2022/11/11 15:47:18;;;;;;;;;;;10.40;99.90;;;;;;6241217;23;19938;-69
2022/11/11 15:49:47;;;;;;;;;;;10.30;99.90;;;;;;6240854;22;20221;-69
2022/11/11 15:52:12;;;;;;;;;;;;;;;;;;6241036;22;19949;-69
2022/11/11 15:54:38;;;;;;;;;;;10.10;99.90;;;;;;6240920;23;20193;-69
2022/11/11 15:57:04;;;;;;;;;;;;;;;;;;6241606;23;19899;-70
2022/11/11 15:59:35;;;;;;;;;;;10.00;99.90;;;;;;6240915;23;19907;-70
2022/11/11 16:02:06;;;;;;;;;;;9.90;99.90;;;;;;6241552;22;19899;-68
2022/11/11 16:04:32;;;;;;;;;;;9.80;99.90;;;;;;6240156;22;19986;-70
2022/11/11 16:06:57;;;;;;;;;;;9.80;99.90;;;;;;6241895;22;19935;-70
2022/11/11 16:09:23;;;;;;;;;;;;;;;;;;6241293;23;19900;-69
2022/11/11 16:11:49;;;;;;;;;;;;;;;;;;6241209;23;20321;-70
2022/11/11 16:14:15;;;;;;;;;;;;;;;;;;6241472;23;19899;-69
2022/11/11 16:16:40;;;;;;;;;;;;;;;;;;6241024;23;19904;-69
2022/11/11 16:19:06;;;;;;;;;;;9.50;99.90;;;;;;6265218;22;19981;-69
2022/11/11 16:21:32;;;;;;;;;;;;;;;;;;6241230;23;19900;-69
2022/11/11 16:23:59;;;;;;;;;;;9.50;99.90;;;;;;6241623;23;19899;-70
2022/11/11 16:26:25;;;;;;;;;;;;;;;;;;6241415;22;19927;-69
2022/11/11 16:28:51;;;;;;;;;;;;;;;;;;6241631;23;19904;-69